Time;durP1;ratioP1;P1;durP2;ratioP2;P2;SDS_P1;SDS_P2;PMS_P1;PMS_P2;Temp;Humidity;BMP_temperature;BMP_pressure;BME280_temperature;BME280_humidity;BME280_pressure;Samples;Min_cycle;Max_cycle;Signal;HPM_P1;HPM_P2
2022/07/08 00:02:05;;;;;;;0.00;0.00;;;14.80;99.90;;;;;;4982940;28;20058;-69
2022/07/08 00:04:30;;;;;;;0.00;0.00;;;14.80;99.90;;;;;;4982598;28;20141;-69
2022/07/08 00:06:56;;;;;;;0.00;0.00;;;14.80;99.90;;;;;;4980736;28;20050;-69
2022/07/08 00:09:22;;;;;;;0.00;0.00;;;14.80;99.90;;;;;;4983077;28;20405;-68
2022/07/08 00:11:48;;;;;;;0.00;0.00;;;14.70;99.90;;;;;;4983056;28;20042;-68
2022/07/08 00:14:14;;;;;;;0.00;0.00;;;14.70;99.90;;;;;;4981737;28;20054;-69
2022/07/08 00:16:40;;;;;;;0.00;0.00;;;14.70;99.90;;;;;;4982715;28;20046;-68
2022/07/08 00:19:14;;;;;;;0.00;0.00;;;14.70;99.90;;;;;;4982499;28;20104;-69
2022/07/08 00:21:44;;;;;;;0.00;0.00;;;14.70;99.90;;;;;;4982626;28;20054;-68
2022/07/08 00:24:11;;;;;;;0.00;0.00;;;14.70;99.90;;;;;;4982647;28;20413;-67
2022/07/08 00:26:38;;;;;;;0.00;0.00;;;14.70;99.90;;;;;;4982631;28;20611;-69
2022/07/08 00:29:05;;;;;;;0.00;0.00;;;14.70;99.90;;;;;;4981580;28;20100;-69
2022/07/08 00:31:31;;;;;;;0.00;0.00;;;14.70;99.90;;;;;;4981738;28;20039;-69
2022/07/08 00:33:57;;;;;;;0.00;0.00;;;14.60;99.90;;;;;;4982359;28;20038;-69
2022/07/08 00:36:22;;;;;;;0.00;0.00;;;14.60;99.90;;;;;;4982261;28;20050;-68
2022/07/08 00:38:48;;;;;;;0.00;0.00;;;14.50;99.90;;;;;;4980824;28;20051;-69
2022/07/08 00:41:15;;;;;;;0.00;0.00;;;14.40;99.90;;;;;;4982550;28;20484;-68
2022/07/08 00:43:45;;;;;;;0.00;0.00;;;14.40;99.90;;;;;;4981323;28;20121;-69
2022/07/08 00:46:12;;;;;;;0.00;0.00;;;14.40;99.90;;;;;;4982734;28;20053;-69
2022/07/08 00:48:38;;;;;;;0.00;0.00;;;14.30;99.90;;;;;;4985403;28;20072;-69
2022/07/08 00:51:07;;;;;;;0.00;0.00;;;14.30;99.90;;;;;;4986235;28;20046;-69
2022/07/08 00:53:34;;;;;;;0.00;0.00;;;14.30;99.90;;;;;;4985837;28;20047;-68
2022/07/08 00:56:00;;;;;;;0.00;0.00;;;14.30;99.90;;;;;;4985642;28;20050;-69
2022/07/08 00:58:26;;;;;;;0.00;0.00;;;14.30;99.90;;;;;;4985763;28;21205;-68
2022/07/08 01:00:53;;;;;;;0.00;0.00;;;14.20;99.90;;;;;;4985720;28;20282;-69
2022/07/08 01:03:19;;;;;;;0.00;0.00;;;14.20;99.90;;;;;;4985694;28;20509;-68
2022/07/08 01:05:45;;;;;;;0.00;0.00;;;14.20;99.90;;;;;;4985919;28;20050;-68
2022/07/08 01:08:11;;;;;;;0.00;0.00;;;14.20;99.90;;;;;;4993985;23;20050;-69
2022/07/08 01:10:37;;;;;;;0.00;0.00;;;14.30;99.90;;;;;;4985579;28;20535;-68
2022/07/08 01:13:04;;;;;;;0.00;0.00;;;14.30;99.90;;;;;;4987869;28;20043;-68
2022/07/08 01:15:30;;;;;;;0.00;0.00;;;14.30;99.90;;;;;;5005175;28;20042;-69
2022/07/08 01:17:56;;;;;;;0.00;0.00;;;14.20;99.90;;;;;;5005578;28;20042;-68
2022/07/08 01:20:22;;;;;;;0.00;0.00;;;14.20;99.90;;;;;;5005259;28;20038;-70
2022/07/08 01:22:48;;;;;;;0.00;0.00;;;14.10;99.90;;;;;;5005172;28;20038;-68
2022/07/08 01:25:14;;;;;;;0.00;0.00;;;14.10;99.90;;;;;;5005563;28;20054;-68
2022/07/08 01:27:40;;;;;;;0.00;0.00;;;14.00;99.90;;;;;;5004343;28;20052;-68
2022/07/08 01:30:06;;;;;;;0.00;0.00;;;14.00;99.90;;;;;;5005354;28;20050;-69
2022/07/08 01:32:33;;;;;;;0.00;0.00;;;14.00;99.90;;;;;;5004283;28;20566;-70
2022/07/08 01:34:59;;;;;;;0.00;0.00;;;13.90;99.90;;;;;;5005046;28;20050;-68
2022/07/08 01:37:25;;;;;;;0.00;0.00;;;13.90;99.90;;;;;;5004869;28;20045;-69
2022/07/08 01:39:51;;;;;;;0.00;0.00;;;13.80;99.90;;;;;;5005034;28;20038;-69
2022/07/08 01:42:16;;;;;;;0.00;0.00;;;13.80;99.90;;;;;;5003925;28;20116;-62
2022/07/08 01:44:42;;;;;;;0.00;0.00;;;13.80;99.90;;;;;;4971554;28;20078;-68
2022/07/08 01:47:08;;;;;;;0.00;0.00;;;13.80;99.90;;;;;;4971841;28;20134;-68
2022/07/08 01:49:33;;;;;;;0.00;0.00;;;13.80;99.90;;;;;;4965212;28;20047;-69
2022/07/08 01:51:59;;;;;;;0.00;0.00;;;13.80;99.90;;;;;;4965980;28;20035;-68
2022/07/08 01:54:25;;;;;;;0.00;0.00;;;13.70;99.90;;;;;;4965775;28;20050;-69
2022/07/08 01:57:13;;;;;;;0.00;0.00;;;13.70;99.90;;;;;;4964141;28;20042;-69
2022/07/08 01:59:36;;;;;;;0.00;0.00;;;13.70;99.90;;;;;;4965670;28;20144;-69
2022/07/08 02:02:02;;;;;;;0.00;0.00;;;13.60;99.90;;;;;;4965650;28;20109;-68
2022/07/08 02:04:28;;;;;;;0.00;0.00;;;13.50;99.90;;;;;;4965311;28;20046;-68
2022/07/08 02:06:53;;;;;;;0.00;0.00;;;13.50;99.90;;;;;;4966013;28;20525;-69
2022/07/08 02:09:19;;;;;;;0.00;0.00;;;13.50;99.90;;;;;;4964823;28;20190;-68
2022/07/08 02:14:29;;;;;;;0.00;0.00;;;13.30;99.90;;;;;;4965409;28;20497;-69
2022/07/08 02:16:54;;;;;;;0.00;0.00;;;13.30;99.90;;;;;;4964429;28;20121;-68
2022/07/08 02:19:20;;;;;;;0.00;0.00;;;13.30;99.90;;;;;;4965003;28;20666;-68
2022/07/08 02:21:46;;;;;;;0.00;0.00;;;13.30;99.90;;;;;;4965056;28;20046;-64
2022/07/08 02:24:11;;;;;;;0.00;0.00;;;13.40;99.90;;;;;;4966119;28;20050;-68
2022/07/08 02:26:37;;;;;;;0.00;0.00;;;13.40;99.90;;;;;;4964853;28;20642;-61
2022/07/08 02:29:02;;;;;;;0.00;0.00;;;13.50;99.90;;;;;;4965000;28;20089;-69
2022/07/08 02:31:28;;;;;;;0.00;0.00;;;13.50;99.90;;;;;;4964580;28;20054;-69
2022/07/08 02:33:54;;;;;;;0.00;0.00;;;13.40;99.90;;;;;;4963856;28;20051;-69
2022/07/08 02:36:19;;;;;;;0.00;0.00;;;13.40;99.90;;;;;;4965058;28;20062;-68
2022/07/08 02:38:45;;;;;;;0.00;0.00;;;13.40;99.90;;;;;;4965376;28;20371;-68
2022/07/08 02:41:10;;;;;;;0.00;0.00;;;13.40;99.90;;;;;;4965573;28;20157;-69
2022/07/08 02:43:36;;;;;;;0.00;0.00;;;13.40;99.90;;;;;;4963047;28;20082;-68
2022/07/08 02:46:02;;;;;;;0.00;0.00;;;13.30;99.90;;;;;;4975516;28;20105;-68
2022/07/08 02:48:27;;;;;;;0.00;0.00;;;13.30;99.90;;;;;;4964426;28;20492;-69
2022/07/08 02:50:53;;;;;;;0.00;0.00;;;13.30;99.90;;;;;;4963439;28;20557;-68
2022/07/08 02:53:18;;;;;;;0.00;0.00;;;13.20;99.90;;;;;;4964688;28;20069;-69
2022/07/08 02:55:44;;;;;;;0.00;0.00;;;13.20;99.90;;;;;;4965187;28;20529;-68
2022/07/08 02:58:10;;;;;;;0.00;0.00;;;13.50;99.90;;;;;;4963720;28;20034;-69
2022/07/08 03:00:36;;;;;;;0.00;0.00;;;13.20;99.90;;;;;;4964780;28;20049;-68
2022/07/08 03:03:02;;;;;;;0.00;0.00;;;13.10;99.90;;;;;;4963579;28;20412;-68
2022/07/08 03:05:27;;;;;;;0.00;0.00;;;13.10;99.90;;;;;;4964572;28;20034;-69
2022/07/08 03:07:53;;;;;;;0.00;0.00;;;13.00;99.90;;;;;;4963670;28;20094;-68
2022/07/08 03:10:19;;;;;;;0.00;0.00;;;13.00;99.90;;;;;;4964298;28;20058;-68
2022/07/08 03:12:44;;;;;;;0.00;0.00;;;12.90;99.90;;;;;;4964162;28;20680;-69
2022/07/08 03:15:10;;;;;;;0.00;0.00;;;12.90;99.90;;;;;;4964070;28;20042;-68
2022/07/08 03:17:36;;;;;;;0.00;0.00;;;12.90;99.90;;;;;;4964213;28;20046;-69
2022/07/08 03:20:02;;;;;;;0.00;0.00;;;12.90;99.90;;;;;;4964175;28;20260;-68
2022/07/08 03:22:28;;;;;;;0.00;0.00;;;12.90;99.90;;;;;;4963900;28;20055;-69
2022/07/08 03:24:53;;;;;;;0.00;0.00;;;12.80;99.90;;;;;;4963884;28;20047;-70
2022/07/08 03:27:19;;;;;;;0.10;0.10;;;12.90;99.90;;;;;;4945708;28;20460;-68
2022/07/08 03:29:44;;;;;;;0.00;0.00;;;12.90;99.90;;;;;;4963035;28;20521;-69
2022/07/08 03:32:10;;;;;;;0.00;0.00;;;12.90;99.90;;;;;;4964059;28;20493;-69
2022/07/08 03:34:36;;;;;;;0.00;0.00;;;12.90;99.90;;;;;;4963566;28;20048;-69
2022/07/08 03:37:01;;;;;;;0.00;0.00;;;12.80;99.90;;;;;;4963998;28;20057;-69
2022/07/08 03:39:27;;;;;;;0.00;0.00;;;12.80;99.90;;;;;;4964071;28;20816;-67
2022/07/08 03:41:52;;;;;;;0.00;0.00;;;12.90;99.90;;;;;;4963404;28;20042;-70
2022/07/08 03:44:18;;;;;;;0.00;0.00;;;12.80;99.90;;;;;;4965708;28;20084;-69
2022/07/08 03:46:44;;;;;;;0.00;0.00;;;12.90;99.90;;;;;;4969132;28;20739;-68
2022/07/08 03:49:09;;;;;;;0.00;0.00;;;12.90;99.90;;;;;;4963913;28;20158;-69
2022/07/08 03:51:35;;;;;;;0.00;0.00;;;12.90;99.90;;;;;;4962829;28;20212;-69
2022/07/08 03:54:00;;;;;;;0.00;0.00;;;12.90;99.90;;;;;;4964088;28;20502;-68
2022/07/08 03:56:26;;;;;;;0.00;0.00;;;12.90;99.90;;;;;;4962998;28;20126;-68
2022/07/08 03:58:52;;;;;;;0.00;0.00;;;12.90;99.90;;;;;;4962351;28;20073;-68
2022/07/08 04:01:18;;;;;;;0.00;0.00;;;13.00;99.90;;;;;;4963083;28;20406;-68
2022/07/08 04:03:44;;;;;;;0.00;0.00;;;13.00;99.90;;;;;;4964199;28;20090;-68
2022/07/08 04:06:09;;;;;;;0.00;0.00;;;13.00;99.90;;;;;;4963628;28;20038;-69
2022/07/08 04:08:35;;;;;;;0.00;0.00;;;13.10;99.90;;;;;;4963032;28;20573;-69
2022/07/08 04:11:01;;;;;;;0.00;0.00;;;13.10;99.90;;;;;;4963034;28;20130;-69
2022/07/08 04:13:29;;;;;;;0.00;0.00;;;13.10;99.90;;;;;;4961083;28;20526;-70
2022/07/08 04:15:56;;;;;;;0.00;0.00;;;13.20;99.90;;;;;;4963625;28;20158;-69
2022/07/08 04:18:21;;;;;;;0.30;0.03;;;13.30;99.90;;;;;;4962906;28;20039;-69
2022/07/08 04:20:47;;;;;;;0.00;0.00;;;13.40;99.90;;;;;;4962809;28;20039;-68
2022/07/08 04:23:13;;;;;;;0.00;0.00;;;13.50;99.90;;;;;;4963806;28;20133;-68
2022/07/08 04:25:39;;;;;;;0.00;0.00;;;13.60;99.90;;;;;;4963201;28;20039;-69
2022/07/08 04:28:05;;;;;;;0.00;0.00;;;13.60;99.90;;;;;;4962187;28;20043;-69
2022/07/08 04:30:30;;;;;;;0.00;0.00;;;13.70;99.90;;;;;;4963188;28;20223;-69
2022/07/08 04:32:56;;;;;;;0.00;0.00;;;13.70;99.90;;;;;;4963231;28;20054;-67
2022/07/08 04:35:22;;;;;;;0.00;0.00;;;13.70;99.90;;;;;;4963320;28;20122;-68
2022/07/08 04:37:48;;;;;;;0.00;0.00;;;13.70;99.90;;;;;;4962804;28;20089;-68
2022/07/08 04:40:15;;;;;;;0.00;0.00;;;13.70;99.90;;;;;;4963607;28;20046;-69
2022/07/08 04:42:41;;;;;;;0.00;0.00;;;13.60;99.90;;;;;;4977815;28;20050;-68
2022/07/08 04:45:08;;;;;;;0.00;0.00;;;13.60;99.90;;;;;;4969668;28;20133;-70
2022/07/08 04:47:33;;;;;;;0.00;0.00;;;13.60;99.90;;;;;;4966570;28;20049;-69
2022/07/08 04:49:59;;;;;;;0.00;0.00;;;13.60;99.90;;;;;;4963090;28;20125;-69
2022/07/08 04:52:25;;;;;;;0.00;0.00;;;13.60;99.90;;;;;;4963098;28;20413;-69
2022/07/08 04:54:50;;;;;;;0.00;0.00;;;13.60;99.90;;;;;;4962762;28;20512;-69
2022/07/08 04:57:16;;;;;;;0.00;0.00;;;13.60;99.90;;;;;;4961996;28;20050;-68
2022/07/08 04:59:42;;;;;;;0.00;0.00;;;13.80;99.90;;;;;;4963746;28;20046;-65
2022/07/08 05:02:07;;;;;;;0.13;0.10;;;14.10;99.90;;;;;;4963197;28;20118;-69
2022/07/08 05:04:33;;;;;;;0.15;0.00;;;14.50;99.90;;;;;;4962252;28;20039;-68
2022/07/08 05:06:59;;;;;;;0.00;0.00;;;14.90;99.90;;;;;;4978020;28;20049;-68
2022/07/08 05:09:25;;;;;;;0.00;0.00;;;15.20;99.90;;;;;;4962467;28;20058;-70
2022/07/08 05:11:51;;;;;;;0.00;0.00;;;15.50;99.90;;;;;;4962034;28;20536;-68
2022/07/08 05:14:16;;;;;;;0.00;0.00;;;15.60;99.90;;;;;;4962774;28;20038;-63
2022/07/08 05:16:43;;;;;;;0.00;0.00;;;15.70;99.90;;;;;;4963432;28;20118;-68
2022/07/08 05:19:09;;;;;;;0.00;0.00;;;15.70;99.90;;;;;;4962816;28;20042;-69
2022/07/08 05:21:38;;;;;;;0.00;0.00;;;15.60;99.90;;;;;;4977210;28;20051;-70
2022/07/08 05:24:08;;;;;;;0.00;0.00;;;15.60;99.90;;;;;;4963209;28;20409;-68
2022/07/08 05:26:34;;;;;;;0.00;0.00;;;15.80;99.90;;;;;;4962107;28;20133;-69
2022/07/08 05:29:00;;;;;;;0.00;0.00;;;15.70;99.90;;;;;;4962387;28;20453;-69
2022/07/08 05:31:26;;;;;;;0.00;0.00;;;15.70;99.90;;;;;;4963546;28;20047;-69
2022/07/08 05:33:52;;;;;;;0.00;0.00;;;15.70;99.90;;;;;;4966272;28;20069;-68
2022/07/08 05:36:17;;;;;;;0.00;0.00;;;15.50;99.90;;;;;;4966441;28;20058;-67
2022/07/08 05:38:43;;;;;;;0.00;0.00;;;15.50;99.90;;;;;;4965930;28;20078;-69
2022/07/08 05:41:09;;;;;;;0.00;0.00;;;15.80;99.90;;;;;;4965386;28;20046;-69
2022/07/08 05:43:34;;;;;;;0.00;0.00;;;16.10;99.90;;;;;;4966678;28;20050;-69
2022/07/08 05:46:00;;;;;;;0.00;0.00;;;16.20;99.90;;;;;;4976673;28;20077;-69
2022/07/08 05:48:28;;;;;;;0.00;0.00;;;16.40;99.90;;;;;;4965126;28;20050;-69
2022/07/08 05:50:54;;;;;;;0.00;0.00;;;16.40;99.90;;;;;;4964967;28;20054;-68
2022/07/08 05:53:20;;;;;;;0.00;0.00;;;16.50;99.90;;;;;;4964442;28;20403;-68
2022/07/08 05:55:47;;;;;;;0.00;0.00;;;16.20;99.90;;;;;;4965155;28;20043;-68
2022/07/08 05:58:13;;;;;;;0.00;0.00;;;16.10;99.90;;;;;;4965552;28;20097;-69
2022/07/08 06:00:38;;;;;;;0.00;0.00;;;16.00;99.90;;;;;;4965902;28;20449;-67
2022/07/08 06:03:05;;;;;;;0.00;0.00;;;15.80;99.90;;;;;;4965661;28;20030;-69
2022/07/08 06:05:31;;;;;;;0.00;0.00;;;15.80;99.90;;;;;;4964871;28;20046;-69
2022/07/08 06:07:57;;;;;;;0.00;0.00;;;15.80;99.90;;;;;;4965348;28;20149;-68
2022/07/08 06:10:23;;;;;;;0.00;0.00;;;15.70;99.90;;;;;;4965467;28;20466;-68
2022/07/08 06:12:50;;;;;;;0.00;0.00;;;15.60;99.90;;;;;;4964980;28;20074;-68
2022/07/08 06:15:16;;;;;;;0.00;0.00;;;15.70;99.90;;;;;;4965021;28;20121;-68
2022/07/08 06:17:42;;;;;;;0.00;0.00;;;15.70;99.90;;;;;;4965881;28;20588;-61
2022/07/08 06:20:08;;;;;;;0.00;0.00;;;15.60;99.90;;;;;;4965379;28;20047;-68
2022/07/08 06:22:34;;;;;;;0.00;0.00;;;15.60;99.90;;;;;;4964549;28;20122;-69
2022/07/08 06:25:00;;;;;;;0.00;0.00;;;15.60;99.90;;;;;;4964053;28;20096;-67
2022/07/08 06:27:26;;;;;;;0.00;0.00;;;15.70;99.90;;;;;;4964957;28;20051;-68
2022/07/08 06:29:52;;;;;;;0.00;0.00;;;15.70;99.90;;;;;;4965324;28;20055;-68
2022/07/08 06:32:17;;;;;;;0.00;0.00;;;15.80;99.90;;;;;;4964668;28;20039;-67
2022/07/08 06:34:46;;;;;;;0.00;0.00;;;15.90;99.90;;;;;;4984771;28;20038;-67
2022/07/08 06:37:12;;;;;;;0.00;0.00;;;16.10;99.90;;;;;;4984907;28;20049;-68
2022/07/08 06:39:38;;;;;;;0.00;0.00;;;16.20;99.90;;;;;;4984208;28;20184;-69
2022/07/08 06:42:04;;;;;;;0.00;0.00;;;16.40;99.90;;;;;;4982082;28;20129;-66
2022/07/08 06:44:30;;;;;;;0.00;0.00;;;16.60;99.90;;;;;;4977942;28;20066;-63
2022/07/08 06:46:55;;;;;;;0.00;0.00;;;16.90;99.90;;;;;;4973301;28;20532;-61
2022/07/08 06:49:21;;;;;;;0.00;0.00;;;17.40;99.90;;;;;;4964025;28;20082;-64
2022/07/08 06:51:47;;;;;;;0.00;0.00;;;17.60;99.90;;;;;;4965044;28;20051;-63
2022/07/08 06:56:56;;;;;;;0.00;0.00;;;17.50;99.90;;;;;;4963766;28;20050;-63
2022/07/08 06:59:22;;;;;;;0.00;0.00;;;17.50;99.90;;;;;;4963310;28;20066;-63
2022/07/08 07:01:48;;;;;;;0.00;0.00;;;17.50;99.90;;;;;;4964360;28;20050;-62
2022/07/08 07:04:13;;;;;;;0.00;0.00;;;17.50;99.90;;;;;;4964316;28;20034;-60
2022/07/08 07:06:39;;;;;;;0.00;0.00;;;17.30;99.90;;;;;;4963317;28;20148;-63
2022/07/08 07:09:05;;;;;;;0.10;0.00;;;17.30;99.90;;;;;;4964076;28;20568;-63
2022/07/08 07:11:31;;;;;;;0.00;0.00;;;17.30;99.90;;;;;;4962743;28;20039;-64
2022/07/08 07:13:56;;;;;;;0.00;0.00;;;17.20;99.90;;;;;;4963650;28;20045;-63
2022/07/08 07:16:22;;;;;;;0.00;0.00;;;17.40;99.90;;;;;;4964241;28;20053;-65
2022/07/08 07:18:48;;;;;;;0.00;0.00;;;17.40;99.90;;;;;;4978614;28;20051;-63
2022/07/08 07:21:14;;;;;;;0.00;0.00;;;17.30;99.90;;;;;;4964026;28;20189;-63
2022/07/08 07:23:39;;;;;;;0.00;0.00;;;17.40;99.90;;;;;;4963044;28;20504;-63
2022/07/08 07:26:05;;;;;;;0.00;0.00;;;17.50;99.90;;;;;;4963175;28;20246;-64
2022/07/08 07:28:31;;;;;;;0.03;0.00;;;17.50;99.90;;;;;;4969060;28;20046;-63
2022/07/08 07:30:57;;;;;;;0.00;0.00;;;17.40;99.90;;;;;;4983036;28;20405;-63
2022/07/08 07:33:22;;;;;;;0.00;0.00;;;17.40;99.90;;;;;;4980786;28;20755;-64
2022/07/08 07:35:48;;;;;;;0.00;0.00;;;17.50;99.90;;;;;;4982898;28;20469;-63
2022/07/08 07:38:14;;;;;;;0.00;0.00;;;17.60;99.90;;;;;;4983646;28;20125;-63
2022/07/08 07:40:39;;;;;;;0.00;0.00;;;17.40;99.90;;;;;;4982600;28;20460;-63
2022/07/08 07:43:05;;;;;;;0.00;0.00;;;17.30;99.90;;;;;;4981860;28;20423;-63
2022/07/08 07:45:30;;;;;;;0.00;0.00;;;17.30;99.90;;;;;;4976299;28;20041;-64
2022/07/08 07:47:56;;;;;;;0.00;0.00;;;17.40;99.90;;;;;;4963457;28;20039;-62
2022/07/08 07:50:22;;;;;;;0.00;0.00;;;17.50;99.90;;;;;;4961544;28;20051;-64
2022/07/08 07:52:47;;;;;;;0.00;0.00;;;17.90;99.90;;;;;;4963362;28;20704;-63
2022/07/08 07:55:13;;;;;;;0.00;0.00;;;17.60;99.90;;;;;;4962734;28;20047;-64
2022/07/08 07:57:39;;;;;;;0.00;0.00;;;17.50;99.90;;;;;;4962336;28;20419;-64
2022/07/08 08:00:08;;;;;;;0.00;0.00;;;17.50;99.90;;;;;;4962456;28;20043;-63
2022/07/08 08:02:34;;;;;;;0.00;0.00;;;17.70;99.90;;;;;;4962889;28;20043;-64
2022/07/08 08:04:59;;;;;;;0.00;0.00;;;17.70;99.90;;;;;;4962982;28;20070;-62
2022/07/08 08:07:25;;;;;;;0.00;0.00;;;17.80;99.90;;;;;;4962834;28;20097;-64
2022/07/08 08:09:51;;;;;;;0.00;0.00;;;17.80;99.90;;;;;;4960793;28;20079;-63
2022/07/08 08:12:17;;;;;;;0.00;0.00;;;17.80;99.90;;;;;;4962362;28;20482;-63
2022/07/08 08:14:42;;;;;;;0.00;0.00;;;17.80;99.90;;;;;;4980052;28;20038;-62
2022/07/08 08:17:08;;;;;;;0.00;0.00;;;17.70;99.90;;;;;;4981252;28;20051;-63
2022/07/08 08:19:34;;;;;;;0.00;0.00;;;17.70;99.90;;;;;;4982061;28;20498;-62
2022/07/08 08:21:59;;;;;;;0.00;0.00;;;17.60;99.90;;;;;;4982837;28;20448;-63
2022/07/08 08:24:25;;;;;;;0.00;0.00;;;17.70;99.90;;;;;;4982460;28;20050;-63
2022/07/08 08:26:51;;;;;;;0.00;0.00;;;17.70;99.90;;;;;;4981635;28;20124;-64
2022/07/08 08:29:16;;;;;;;0.00;0.00;;;17.70;99.90;;;;;;4982440;28;20045;-60
2022/07/08 08:31:42;;;;;;;0.00;0.00;;;17.80;99.90;;;;;;4982928;28;20073;-63
2022/07/08 08:34:08;;;;;;;0.00;0.00;;;17.90;99.90;;;;;;4982704;28;20563;-64
2022/07/08 08:36:34;;;;;;;0.00;0.00;;;17.90;99.90;;;;;;4981689;28;20043;-64
2022/07/08 08:39:00;;;;;;;0.00;0.00;;;17.90;99.90;;;;;;4982317;28;20377;-63
2022/07/08 08:41:27;;;;;;;0.00;0.00;;;17.80;99.90;;;;;;4982137;28;20413;-64
2022/07/08 08:43:53;;;;;;;0.38;0.00;;;17.90;99.90;;;;;;4980601;28;20197;-63
2022/07/08 08:46:22;;;;;;;0.00;0.00;;;17.90;99.90;;;;;;4971223;28;20173;-63
2022/07/08 08:48:50;;;;;;;0.00;0.00;;;17.90;99.90;;;;;;4962770;28;20402;-64
2022/07/08 08:51:20;;;;;;;0.00;0.00;;;17.80;99.90;;;;;;4962850;28;20051;-61
2022/07/08 08:53:47;;;;;;;0.00;0.00;;;17.90;99.90;;;;;;4962613;28;20043;-55
2022/07/08 08:56:16;;;;;;;0.00;0.00;;;17.90;99.90;;;;;;4961246;28;20090;-58
2022/07/08 08:58:48;;;;;;;0.00;0.00;;;17.90;99.90;;;;;;4962812;28;20101;-61
2022/07/08 09:01:17;;;;;;;0.00;0.00;;;17.90;99.90;;;;;;4962646;28;20039;-63
2022/07/08 09:03:43;;;;;;;0.00;0.00;;;17.90;99.90;;;;;;4963197;28;20051;-64
2022/07/08 09:06:10;;;;;;;0.00;0.00;;;17.90;99.90;;;;;;4962984;28;20062;-64
2022/07/08 09:08:36;;;;;;;0.00;0.00;;;17.70;99.90;;;;;;4965835;28;20292;-64
2022/07/08 09:11:03;;;;;;;0.00;0.00;;;17.70;99.90;;;;;;4965660;28;20074;-63
2022/07/08 09:13:29;;;;;;;0.00;0.00;;;17.70;99.90;;;;;;4965745;28;20057;-64
2022/07/08 09:15:59;;;;;;;0.00;0.00;;;17.80;99.90;;;;;;4965315;28;20421;-63
2022/07/08 09:18:32;;;;;;;0.00;0.00;;;17.80;99.90;;;;;;4965284;28;20534;-63
2022/07/08 09:20:59;;;;;;;0.00;0.00;;;17.90;99.90;;;;;;4965925;28;20047;-63
2022/07/08 09:23:30;;;;;;;0.00;0.00;;;17.80;99.90;;;;;;4965891;28;20042;-63
2022/07/08 09:25:57;;;;;;;0.00;0.00;;;17.70;99.90;;;;;;4964674;28;20078;-60
2022/07/08 09:28:44;;;;;;;0.00;0.00;;;17.70;99.90;;;;;;4965588;28;20477;-63
2022/07/08 09:31:14;;;;;;;0.00;0.00;;;17.70;99.90;;;;;;4965304;28;20678;-63
2022/07/08 09:33:44;;;;;;;0.00;0.00;;;17.80;99.90;;;;;;4964138;28;20039;-62
2022/07/08 09:36:10;;;;;;;0.00;0.00;;;17.80;99.90;;;;;;4965767;28;20038;-63
2022/07/08 09:38:37;;;;;;;0.00;0.00;;;17.90;99.90;;;;;;4964673;28;20046;-62
2022/07/08 09:41:05;;;;;;;0.00;0.00;;;18.00;99.90;;;;;;4965165;28;20494;-63
2022/07/08 09:43:42;;;;;;;0.00;0.00;;;18.10;99.90;;;;;;4965486;28;20053;-60
2022/07/08 09:46:08;;;;;;;0.00;0.00;;;18.30;99.90;;;;;;4975693;28;20057;-66
2022/07/08 09:48:34;;;;;;;0.00;0.00;;;18.40;99.90;;;;;;4965557;28;20042;-64
2022/07/08 09:51:07;;;;;;;0.00;0.00;;;18.50;99.90;;;;;;4965837;28;20401;-63
2022/07/08 09:53:33;;;;;;;0.00;0.00;;;18.60;99.90;;;;;;4964883;28;20057;-63
2022/07/08 09:56:00;;;;;;;0.00;0.00;;;18.60;99.90;;;;;;4963550;28;20046;-63
2022/07/08 09:58:28;;;;;;;0.00;0.00;;;18.50;99.90;;;;;;4965055;28;20047;-68
2022/07/08 10:00:55;;;;;;;0.00;0.00;;;18.50;99.90;;;;;;4980426;28;20050;-67
2022/07/08 10:03:22;;;;;;;0.00;0.00;;;18.50;99.90;;;;;;4964677;28;20035;-67
2022/07/08 10:05:48;;;;;;;0.00;0.00;;;18.30;99.90;;;;;;4964665;28;20051;-68
2022/07/08 10:08:15;;;;;;;0.00;0.00;;;18.30;99.90;;;;;;4964700;28;20505;-67
2022/07/08 10:10:42;;;;;;;0.00;0.00;;;18.40;99.90;;;;;;4964453;28;20101;-68
2022/07/08 10:13:09;;;;;;;0.00;0.00;;;18.40;99.90;;;;;;4965382;28;20054;-68
2022/07/08 10:15:37;;;;;;;0.00;0.00;;;18.40;99.90;;;;;;4965225;28;20628;-67
2022/07/08 10:18:15;;;;;;;0.00;0.00;;;18.60;99.90;;;;;;4964221;28;20079;-68
2022/07/08 10:20:45;;;;;;;0.35;0.32;;;18.80;99.90;;;;;;4965536;28;20058;-67
2022/07/08 10:23:19;;;;;;;0.00;0.00;;;18.80;99.90;;;;;;4965769;28;20422;-67
2022/07/08 10:25:46;;;;;;;0.00;0.00;;;18.90;99.90;;;;;;4964005;28;20742;-68
2022/07/08 10:28:12;;;;;;;0.03;0.03;;;18.90;99.90;;;;;;4964271;28;20051;-67
2022/07/08 10:30:46;;;;;;;0.00;0.00;;;18.90;99.90;;;;;;4979992;28;20130;-67
2022/07/08 10:33:23;;;;;;;0.00;0.00;;;19.00;99.90;;;;;;4964718;28;20113;-68
2022/07/08 10:36:04;;;;;;;0.00;0.00;;;19.20;99.90;;;;;;4964984;28;20046;-67
2022/07/08 10:38:33;;;;;;;0.00;0.00;;;19.30;99.90;;;;;;4964318;28;20125;-68
2022/07/08 10:41:04;;;;;;;0.00;0.00;;;19.40;99.90;;;;;;4964610;28;20138;-67
2022/07/08 10:43:31;;;;;;;0.00;0.00;;;19.60;99.90;;;;;;4964605;28;20058;-68
2022/07/08 10:46:01;;;;;;;0.03;0.03;;;19.60;99.90;;;;;;4972239;28;20712;-67
2022/07/08 10:48:51;;;;;;;0.00;0.00;;;19.70;99.90;;;;;;4982644;28;20051;-68
2022/07/08 10:51:20;;;;;;;0.00;0.00;;;19.90;99.90;;;;;;4983387;28;20050;-69
2022/07/08 10:53:46;;;;;;;0.00;0.00;;;19.80;99.90;;;;;;4984132;28;20042;-67
2022/07/08 10:56:32;;;;;;;0.00;0.00;;;19.80;99.90;;;;;;4983723;28;20058;-66
2022/07/08 10:59:23;;;;;;;0.00;0.00;;;20.00;99.90;;;;;;4983167;28;20085;-67
2022/07/08 11:02:00;;;;;;;0.00;0.00;;;20.00;99.90;;;;;;4984236;28;20049;-67
2022/07/08 11:04:33;;;;;;;0.00;0.00;;;20.20;99.90;;;;;;4983364;28;20133;-67
2022/07/08 11:07:37;;;;;;;0.00;0.00;;;20.40;99.90;;;;;;4983262;28;20110;-67
2022/07/08 11:10:11;;;;;;;0.00;0.00;;;20.80;99.90;;;;;;4983664;28;20078;-68
2022/07/08 11:12:37;;;;;;;0.10;0.10;;;20.70;99.90;;;;;;4983123;28;20042;-67
2022/07/08 11:15:17;;;;;;;0.00;0.00;;;20.90;99.90;;;;;;4982226;28;20068;-68
2022/07/08 11:17:45;;;;;;;0.00;0.00;;;20.90;99.90;;;;;;4984558;28;20050;-67
2022/07/08 11:20:14;;;;;;;0.00;0.00;;;20.90;99.90;;;;;;4982067;28;20105;-67
2022/07/08 11:22:43;;;;;;;0.00;0.00;;;21.00;99.90;;;;;;4983455;28;20054;-67
2022/07/08 11:25:11;;;;;;;0.00;0.00;;;21.10;99.90;;;;;;4983583;28;20114;-66
2022/07/08 11:27:37;;;;;;;0.00;0.00;;;21.10;99.90;;;;;;4983149;28;20046;-68
2022/07/08 11:30:14;;;;;;;0.00;0.00;;;21.30;99.90;;;;;;4982875;28;20050;-67
2022/07/08 11:32:40;;;;;;;0.00;0.00;;;21.60;99.90;;;;;;4982993;28;20096;-67
2022/07/08 11:35:07;;;;;;;0.00;0.00;;;22.00;99.90;;;;;;4983011;28;20054;-68
2022/07/08 11:37:42;;;;;;;0.00;0.00;;;21.50;99.90;;;;;;4981660;28;20096;-68
2022/07/08 11:40:09;;;;;;;0.00;0.00;;;21.50;99.90;;;;;;4981591;28;20089;-57
2022/07/08 11:42:39;;;;;;;0.00;0.00;;;21.70;99.90;;;;;;4982918;28;20076;-67
2022/07/08 11:45:07;;;;;;;0.22;0.22;;;22.00;99.90;;;;;;4977135;28;20129;-67
2022/07/08 11:47:33;;;;;;;0.00;0.00;;;21.50;99.90;;;;;;4967219;28;20053;-68
2022/07/08 11:49:59;;;;;;;0.00;0.00;;;21.70;99.90;;;;;;4963295;28;20038;-67
2022/07/08 11:52:27;;;;;;;0.00;0.00;;;21.90;99.90;;;;;;4963147;28;20042;-67
2022/07/08 11:54:53;;;;;;;0.05;0.05;;;22.00;99.90;;;;;;4963617;28;20059;-68
2022/07/08 11:57:19;;;;;;;0.00;0.00;;;22.40;99.90;;;;;;4962862;28;20054;-67
2022/07/08 11:59:48;;;;;;;0.00;0.00;;;22.50;99.90;;;;;;4963537;28;20207;-67
2022/07/08 12:02:19;;;;;;;0.00;0.00;;;22.80;99.90;;;;;;4962064;28;20137;-67
2022/07/08 12:04:49;;;;;;;0.00;0.00;;;22.60;99.90;;;;;;4963603;28;20447;-67
2022/07/08 12:07:26;;;;;;;0.00;0.00;;;22.70;99.90;;;;;;4963025;28;20507;-68
2022/07/08 12:10:00;;;;;;;0.00;0.00;;;23.20;99.90;;;;;;4962840;28;20054;-68
2022/07/08 12:12:27;;;;;;;0.00;0.00;;;23.00;99.90;;;;;;4962113;28;20129;-68
2022/07/08 12:14:54;;;;;;;0.30;0.30;;;22.90;99.90;;;;;;4962671;28;20423;-67
2022/07/08 12:17:27;;;;;;;0.00;0.00;;;22.60;99.90;;;;;;4961636;28;20046;-67
2022/07/08 12:19:56;;;;;;;0.00;0.00;;;22.50;99.90;;;;;;4963310;28;20523;-67
2022/07/08 12:22:41;;;;;;;0.00;0.00;;;22.10;99.90;;;;;;4962290;28;20043;-66
2022/07/08 12:25:07;;;;;;;0.00;0.00;;;22.30;99.90;;;;;;4961994;28;20046;-67
2022/07/08 12:27:33;;;;;;;0.00;0.00;;;22.20;99.90;;;;;;4962073;28;20490;-67
2022/07/08 12:30:06;;;;;;;0.00;0.00;;;22.30;99.90;;;;;;4962634;28;20644;-67
2022/07/08 12:32:40;;;;;;;0.00;0.00;;;22.40;99.90;;;;;;4962380;28;20120;-67
2022/07/08 12:35:11;;;;;;;0.00;0.00;;;22.50;99.90;;;;;;4962102;28;20073;-67
2022/07/08 12:37:37;;;;;;;0.10;0.08;;;22.60;99.90;;;;;;4962370;28;20589;-67
2022/07/08 12:40:20;;;;;;;0.00;0.00;;;22.80;99.90;;;;;;4962122;28;20089;-67
2022/07/08 12:43:05;;;;;;;0.00;0.00;;;22.70;99.90;;;;;;4965838;28;20068;-63
2022/07/08 12:45:31;;;;;;;0.00;0.00;;;22.30;99.90;;;;;;4976544;28;20556;-68
2022/07/08 12:48:00;;;;;;;0.10;0.00;;;22.10;99.90;;;;;;4966639;28;20042;-67
2022/07/08 12:50:27;;;;;;;0.00;0.00;;;22.20;99.90;;;;;;4966231;28;20084;-68
2022/07/08 12:52:53;;;;;;;0.00;0.00;;;22.10;99.90;;;;;;4966816;28;20401;-70
2022/07/08 12:55:19;;;;;;;0.00;0.00;;;22.10;99.90;;;;;;4965498;28;20734;-67